createdAt,value
2023-04-10T00:00:13.332Z,45.07
2023-04-10T00:02:41.017Z,38.20
2023-04-10T00:05:09.373Z,43.50
2023-04-10T00:07:36.781Z,47.10
2023-04-10T00:10:04.486Z,41.53
2023-04-10T00:12:33.381Z,41.80
2023-04-10T00:15:00.826Z,42.47
2023-04-10T00:17:28.251Z,53.60
2023-04-10T00:19:55.785Z,50.40
2023-04-10T00:22:23.211Z,47.20
2023-04-10T00:24:50.691Z,42.60
2023-04-10T00:27:18.118Z,47.57
2023-04-10T00:29:46.877Z,51.97
2023-04-10T00:32:14.533Z,49.33
2023-04-10T00:34:42.091Z,56.70
2023-04-10T00:37:09.501Z,53.67
2023-04-10T00:39:37.139Z,55.53
2023-04-10T00:42:09.313Z,52.67
2023-04-10T00:44:37.387Z,54.57
2023-04-10T00:47:06.480Z,64.53
2023-04-10T00:49:34.857Z,54.83
2023-04-10T00:52:02.574Z,49.10
2023-04-10T00:54:31.313Z,45.70
2023-04-10T00:56:59.741Z,40.20
2023-04-10T00:59:27.236Z,41.37
2023-04-10T01:01:54.732Z,43.07
2023-04-10T01:04:26.660Z,42.97
2023-04-10T01:07:00.506Z,39.77
2023-04-10T01:09:39.591Z,35.93
2023-04-10T01:12:17.093Z,35.93
2023-04-10T01:14:53.998Z,35.90
2023-04-10T01:17:29.381Z,28.77
2023-04-10T01:20:05.459Z,27.47
2023-04-10T01:22:37.481Z,29.73
2023-04-10T01:25:20.382Z,31.93
2023-04-10T01:28:06.299Z,33.70
2023-04-10T01:30:36.449Z,29.87
2023-04-10T01:33:06.904Z,27.57
2023-04-10T01:35:35.927Z,29.37
2023-04-10T01:38:07.224Z,32.23
2023-04-10T01:40:39.596Z,32.07
2023-04-10T01:43:11.320Z,28.43
2023-04-10T01:45:43.436Z,31.80
2023-04-10T01:48:11.649Z,35.03
2023-04-10T01:50:39.537Z,36.13
2023-04-10T01:53:08.255Z,30.73
2023-04-10T01:55:38.121Z,34.47
2023-04-10T01:58:05.816Z,31.03
2023-04-10T02:00:41.253Z,30.97
2023-04-10T02:03:08.969Z,33.30
2023-04-10T02:05:47.099Z,34.87
2023-04-10T02:08:19.581Z,36.47
2023-04-10T02:10:53.014Z,33.47
2023-04-10T02:13:23.067Z,37.00
2023-04-10T02:15:53.134Z,30.70
2023-04-10T02:18:22.929Z,32.03
2023-04-10T02:20:50.697Z,32.53
2023-04-10T02:23:19.272Z,35.77
2023-04-10T02:25:46.795Z,38.97
2023-04-10T02:28:14.205Z,34.43
2023-04-10T02:30:41.666Z,42.37
2023-04-10T02:33:10.667Z,42.43
2023-04-10T02:35:38.205Z,42.70
2023-04-10T02:38:05.748Z,48.37
2023-04-10T02:40:33.420Z,50.90
2023-04-10T02:43:00.905Z,47.00
2023-04-10T02:45:28.420Z,43.93
2023-04-10T02:47:56.165Z,44.90
2023-04-10T02:50:25.037Z,40.20
2023-04-10T02:52:52.453Z,45.10
2023-04-10T02:55:20.099Z,44.77
2023-04-10T02:57:47.747Z,41.30
2023-04-10T03:00:16.179Z,45.70
2023-04-10T03:02:43.723Z,43.53
2023-04-10T03:05:11.488Z,46.00
2023-04-10T03:07:40.555Z,44.90
2023-04-10T03:10:09.251Z,51.00
2023-04-10T03:12:37.023Z,50.50
2023-04-10T03:15:05.039Z,49.60
2023-04-10T03:17:32.739Z,47.67
2023-04-10T03:20:00.296Z,48.10
2023-04-10T03:22:31.756Z,44.33
2023-04-10T03:25:01.250Z,46.30
2023-04-10T03:27:29.090Z,45.67
2023-04-10T03:29:56.528Z,45.50
2023-04-10T03:32:23.982Z,45.43
2023-04-10T03:34:51.465Z,45.37
2023-04-10T03:37:19.480Z,41.17
2023-04-10T03:39:46.881Z,46.03
2023-04-10T03:42:15.627Z,41.30
2023-04-10T03:44:43.077Z,45.40
2023-04-10T03:47:10.849Z,47.40
2023-04-10T03:49:38.424Z,44.73
2023-04-10T03:52:06.218Z,44.20
2023-04-10T03:54:33.664Z,42.77
2023-04-10T03:57:01.503Z,46.30
2023-04-10T03:59:38.241Z,43.37
2023-04-10T04:02:08.042Z,42.00
2023-04-10T04:04:35.778Z,41.77
2023-04-10T04:07:03.422Z,41.70
2023-04-10T04:09:31.122Z,44.27
2023-04-10T04:11:58.532Z,42.27
2023-04-10T04:14:25.961Z,46.43
2023-04-10T04:16:54.789Z,48.03
2023-04-10T04:19:22.329Z,42.40
2023-04-10T04:21:49.789Z,43.53
2023-04-10T04:24:17.218Z,40.97
2023-04-10T04:26:44.674Z,38.93
2023-04-10T04:29:12.112Z,41.27
2023-04-10T04:31:39.606Z,41.63
2023-04-10T04:34:08.366Z,44.63
2023-04-10T04:36:35.849Z,42.60
2023-04-10T04:39:03.246Z,40.80
2023-04-10T04:41:32.312Z,40.40
2023-04-10T04:44:01.094Z,41.53
2023-04-10T04:46:28.724Z,44.30
2023-04-10T04:48:56.208Z,37.37
2023-04-10T04:51:24.977Z,40.00
2023-04-10T04:53:52.683Z,35.87
2023-04-10T04:56:20.412Z,30.63
2023-04-10T04:58:47.842Z,34.87
2023-04-10T05:01:15.698Z,32.40
2023-04-10T05:03:43.385Z,36.70
2023-04-10T05:06:11.126Z,34.83
2023-04-10T05:08:39.865Z,33.13
2023-04-10T05:11:07.927Z,31.13
2023-04-10T05:13:35.374Z,31.97
2023-04-10T05:16:02.879Z,28.70
2023-04-10T05:18:30.595Z,29.40
2023-04-10T05:20:58.103Z,29.43
2023-04-10T05:23:25.764Z,26.20
2023-04-10T05:25:54.515Z,29.10
2023-04-10T05:28:22.741Z,27.83
2023-04-10T05:30:50.251Z,25.70
2023-04-10T05:33:17.720Z,26.37
2023-04-10T05:35:45.273Z,27.67
2023-04-10T05:38:12.780Z,26.10
2023-04-10T05:40:40.213Z,24.87
2023-04-10T05:43:09.698Z,28.37
2023-04-10T05:45:37.238Z,26.90
2023-04-10T05:48:04.981Z,23.27
2023-04-10T05:50:32.420Z,22.17
2023-04-10T05:52:59.878Z,26.50
2023-04-10T05:55:27.308Z,26.10
2023-04-10T05:57:54.751Z,26.77
2023-04-10T06:00:23.545Z,26.77
2023-04-10T06:02:51.090Z,23.63
2023-04-10T06:05:18.912Z,24.27
2023-04-10T06:07:46.461Z,23.57
2023-04-10T06:10:13.955Z,23.93
2023-04-10T06:12:41.649Z,24.53
2023-04-10T06:15:09.834Z,23.23
2023-04-10T06:17:44.476Z,21.93
2023-04-10T06:20:12.801Z,25.07
2023-04-10T06:22:40.605Z,26.50
2023-04-10T06:25:08.559Z,28.00
2023-04-10T06:27:36.493Z,24.50
2023-04-10T06:30:04.342Z,24.03
2023-04-10T06:32:32.140Z,22.73
2023-04-10T06:35:00.970Z,24.50
2023-04-10T06:37:31.189Z,27.20
2023-04-10T06:40:04.670Z,28.23
2023-04-10T06:42:35.663Z,27.10
2023-04-10T06:45:03.397Z,30.40
2023-04-10T06:47:31.606Z,30.83
2023-04-10T06:49:59.080Z,27.03
2023-04-10T06:52:27.941Z,29.83
2023-04-10T06:54:55.439Z,28.57
2023-04-10T06:57:22.885Z,31.70
2023-04-10T06:59:50.349Z,31.13
2023-04-10T07:02:17.899Z,26.70
2023-04-10T07:04:45.672Z,30.13
2023-04-10T07:07:13.433Z,32.57
2023-04-10T07:09:42.428Z,31.27
2023-04-10T07:12:09.905Z,29.87
2023-04-10T07:14:37.461Z,27.03
2023-04-10T07:17:04.922Z,33.23
2023-04-10T07:19:32.485Z,33.97
2023-04-10T07:22:00.705Z,33.03
2023-04-10T07:24:28.407Z,35.80
2023-04-10T07:26:58.123Z,35.37
2023-04-10T07:29:25.692Z,36.30
2023-04-10T07:32:01.096Z,35.34
2023-04-10T07:34:28.730Z,34.30
2023-04-10T07:36:56.130Z,31.50
2023-04-10T07:39:23.629Z,30.40
2023-04-10T07:41:51.169Z,32.53
2023-04-10T07:44:19.939Z,28.10
2023-04-10T07:46:47.528Z,30.80
2023-04-10T07:49:15.001Z,34.03
2023-04-10T07:51:42.473Z,35.93
2023-04-10T07:54:10.046Z,38.07
2023-04-10T07:56:37.637Z,39.90
2023-04-10T07:59:05.295Z,38.87
2023-04-10T08:01:34.323Z,37.20
2023-04-10T08:04:04.768Z,39.63
2023-04-10T08:06:33.351Z,38.23
2023-04-10T08:09:02.072Z,39.67
2023-04-10T08:11:31.229Z,39.23
2023-04-10T08:14:01.708Z,38.80
2023-04-10T08:16:31.363Z,38.53
2023-04-10T08:19:00.848Z,39.77
2023-04-10T08:21:30.106Z,38.43
2023-04-10T08:23:58.754Z,39.57
2023-04-10T08:26:27.623Z,39.03
2023-04-10T08:28:57.508Z,40.37
2023-04-10T08:31:27.404Z,35.07
2023-04-10T08:33:55.456Z,37.03
2023-04-10T08:36:24.980Z,36.70
2023-04-10T08:38:52.406Z,34.77
2023-04-10T08:41:20.917Z,31.67
2023-04-10T08:43:49.776Z,31.57
2023-04-10T08:46:17.449Z,32.77
2023-04-10T08:48:47.984Z,33.53
2023-04-10T08:51:20.443Z,32.00
2023-04-10T08:54:01.713Z,30.77
2023-04-10T08:56:29.297Z,31.63
2023-04-10T08:58:56.888Z,32.63
2023-04-10T09:01:24.613Z,30.83
2023-04-10T09:03:52.467Z,31.57
2023-04-10T09:06:19.967Z,29.50
2023-04-10T09:08:47.442Z,30.83
2023-04-10T09:11:16.256Z,29.00
2023-04-10T09:13:45.017Z,28.53
2023-04-10T09:16:12.864Z,26.33
2023-04-10T09:18:48.337Z,25.33
2023-04-10T09:21:17.687Z,28.90
2023-04-10T09:23:45.997Z,27.77
2023-04-10T09:26:27.083Z,24.93
2023-04-10T09:28:59.369Z,23.90
2023-04-10T09:31:34.925Z,25.60
2023-04-10T09:34:09.166Z,28.07
2023-04-10T09:36:36.932Z,27.57
2023-04-10T09:39:05.181Z,29.10
2023-04-10T09:41:34.528Z,21.63
2023-04-10T09:44:09.839Z,25.60
2023-04-10T09:46:37.323Z,23.17
2023-04-10T09:49:07.243Z,22.40
2023-04-10T09:51:36.547Z,20.40
2023-04-10T09:54:04.462Z,20.10
2023-04-10T09:56:32.743Z,19.47
2023-04-10T09:59:04.724Z,16.80
2023-04-10T10:01:35.229Z,16.27
2023-04-10T10:04:04.419Z,16.13
2023-04-10T10:06:33.109Z,18.20
2023-04-10T10:09:03.806Z,19.57
2023-04-10T10:11:34.755Z,17.23
2023-04-10T10:14:09.003Z,18.30
2023-04-10T10:16:44.335Z,15.30
2023-04-10T10:19:17.250Z,15.17
2023-04-10T10:21:45.786Z,14.43
2023-04-10T10:24:14.504Z,17.07
2023-04-10T10:26:42.766Z,14.90
2023-04-10T10:29:13.377Z,15.73
2023-04-10T10:31:41.290Z,15.17
2023-04-10T10:34:09.790Z,15.80
2023-04-10T10:36:38.342Z,16.47
2023-04-10T10:39:33.517Z,14.70
2023-04-10T10:42:07.564Z,14.13
2023-04-10T10:44:43.749Z,14.83
2023-04-10T10:47:16.642Z,13.30
2023-04-10T10:49:55.293Z,14.60
2023-04-10T10:52:38.511Z,13.67
2023-04-10T10:55:32.540Z,15.10
2023-04-10T10:58:02.025Z,12.90
2023-04-10T11:01:09.840Z,13.53
2023-04-10T11:03:38.328Z,11.63
2023-04-10T11:06:08.828Z,13.50
2023-04-10T11:08:47.197Z,12.13
2023-04-10T11:11:16.844Z,12.30
2023-04-10T11:14:17.723Z,13.00
2023-04-10T11:16:48.320Z,11.50
2023-04-10T11:19:22.436Z,11.83
2023-04-10T11:22:05.489Z,15.37
2023-04-10T11:24:58.468Z,13.67
2023-04-10T11:27:48.682Z,15.57
2023-04-10T11:30:34.290Z,13.83
2023-04-10T11:33:05.504Z,12.57
2023-04-10T11:35:33.877Z,11.93
2023-04-10T11:38:15.739Z,11.17
2023-04-10T11:41:01.502Z,12.03
2023-04-10T11:43:29.362Z,11.70
2023-04-10T11:46:04.592Z,11.73
2023-04-10T11:48:33.611Z,12.57
2023-04-10T11:51:08.520Z,11.87
2023-04-10T11:53:36.077Z,10.93
2023-04-10T11:56:03.604Z,12.30
2023-04-10T11:58:32.012Z,12.60
2023-04-10T12:01:04.093Z,12.83
2023-04-10T12:03:41.286Z,10.60
2023-04-10T12:06:11.469Z,10.83
2023-04-10T12:08:40.443Z,10.53
2023-04-10T12:11:09.459Z,13.40
2023-04-10T12:13:37.241Z,12.47
2023-04-10T12:16:06.967Z,13.30
2023-04-10T12:18:35.942Z,13.03
2023-04-10T12:21:06.851Z,13.00
2023-04-10T12:23:38.357Z,10.57
2023-04-10T12:26:14.180Z,10.53
2023-04-10T12:28:43.500Z,13.57
2023-04-10T12:31:11.200Z,10.40
2023-04-10T12:33:38.652Z,10.33
2023-04-10T12:36:20.608Z,11.40
2023-04-10T12:38:48.058Z,11.67
2023-04-10T12:41:22.577Z,9.57
2023-04-10T12:43:50.046Z,10.73
2023-04-10T12:46:25.915Z,9.90
2023-04-10T12:48:53.804Z,9.67
2023-04-10T12:51:42.482Z,7.73
2023-04-10T12:54:09.862Z,8.37
2023-04-10T12:56:42.452Z,7.20
2023-04-10T12:59:10.049Z,7.83
2023-04-10T13:01:38.786Z,7.67
2023-04-10T13:04:06.480Z,6.20
2023-04-10T13:06:43.462Z,6.63
2023-04-10T13:09:10.845Z,9.10
2023-04-10T13:11:38.328Z,7.63
2023-04-10T13:14:05.827Z,7.00
2023-04-10T13:16:33.406Z,6.33
2023-04-10T13:19:01.461Z,7.20
2023-04-10T13:21:29.051Z,8.73
2023-04-10T13:23:58.100Z,8.53
2023-04-10T13:26:25.882Z,10.23
2023-04-10T13:28:53.831Z,11.70
2023-04-10T13:31:21.404Z,11.07
2023-04-10T13:33:49.442Z,10.83
2023-04-10T13:36:16.956Z,10.37
2023-04-10T13:38:44.433Z,11.03
2023-04-10T13:41:13.216Z,10.30
2023-04-10T13:43:40.774Z,10.27
2023-04-10T13:46:08.468Z,10.67
2023-04-10T13:48:41.097Z,10.03
2023-04-10T13:51:09.247Z,9.47
2023-04-10T13:53:36.853Z,9.70
2023-04-10T13:56:04.338Z,9.00
2023-04-10T13:58:34.336Z,9.20
2023-04-10T14:01:02.205Z,8.93
2023-04-10T14:03:29.813Z,8.90
2023-04-10T14:05:57.406Z,7.77
2023-04-10T14:08:24.821Z,9.23
2023-04-10T14:10:52.674Z,8.53
2023-04-10T14:13:20.119Z,9.40
2023-04-10T14:15:50.015Z,7.93
2023-04-10T14:18:18.400Z,8.20
2023-04-10T14:20:45.816Z,7.93
2023-04-10T14:23:18.312Z,8.80
2023-04-10T14:25:46.123Z,8.33
2023-04-10T14:28:17.677Z,7.73
2023-04-10T14:30:45.284Z,8.23
2023-04-10T14:33:14.148Z,10.20
2023-04-10T14:35:42.013Z,10.63
2023-04-10T14:38:09.443Z,9.50
2023-04-10T14:40:37.510Z,9.07
2023-04-10T14:43:04.968Z,8.87
2023-04-10T14:45:32.640Z,8.03
2023-04-10T14:48:00.237Z,8.40
2023-04-10T14:50:29.408Z,7.53
2023-04-10T14:52:56.862Z,8.40
2023-04-10T14:55:25.137Z,8.60
2023-04-10T14:57:52.618Z,8.27
2023-04-10T15:00:20.595Z,8.70
2023-04-10T15:02:48.302Z,8.80
2023-04-10T15:05:16.024Z,8.23
2023-04-10T15:07:44.725Z,10.00
2023-04-10T15:10:12.270Z,9.27
2023-04-10T15:12:39.781Z,9.17
2023-04-10T15:15:08.457Z,9.70
2023-04-10T15:17:35.934Z,9.97
2023-04-10T15:20:04.958Z,10.00
2023-04-10T15:22:32.417Z,9.30
2023-04-10T15:25:01.311Z,9.77
2023-04-10T15:27:28.906Z,10.00
2023-04-10T15:29:56.567Z,9.90
2023-04-10T15:32:23.987Z,9.43
2023-04-10T15:34:51.420Z,10.57
2023-04-10T15:37:18.847Z,8.87
2023-04-10T15:39:46.240Z,9.50
2023-04-10T15:42:15.910Z,8.77
2023-04-10T15:44:43.348Z,9.40
2023-04-10T15:47:10.791Z,8.67
2023-04-10T15:49:38.854Z,8.70
2023-04-10T15:52:06.899Z,9.10
2023-04-10T15:54:35.602Z,9.33
2023-04-10T15:57:03.799Z,8.70
2023-04-10T15:59:33.448Z,9.00
2023-04-10T16:02:01.060Z,8.97
2023-04-10T16:04:28.995Z,9.13
2023-04-10T16:06:56.917Z,8.83
2023-04-10T16:09:26.436Z,8.60
2023-04-10T16:11:54.866Z,8.50
2023-04-10T16:14:22.772Z,8.43
2023-04-10T16:16:51.882Z,9.20
2023-04-10T16:19:19.320Z,9.57
2023-04-10T16:21:46.744Z,8.90
2023-04-10T16:24:14.236Z,9.50
2023-04-10T16:26:41.641Z,8.53
2023-04-10T16:29:09.107Z,8.80
2023-04-10T16:31:36.554Z,8.13
2023-04-10T16:34:05.281Z,9.17
2023-04-10T16:36:32.685Z,9.10
2023-04-10T16:39:00.132Z,7.63
2023-04-10T16:41:27.573Z,8.13
2023-04-10T16:43:55.428Z,9.10
2023-04-10T16:46:22.916Z,8.40
2023-04-10T16:48:51.988Z,8.47
2023-04-10T16:51:20.776Z,8.30
2023-04-10T16:53:48.154Z,10.43
2023-04-10T16:56:15.566Z,10.30
2023-04-10T16:58:43.157Z,8.80
2023-04-10T17:01:17.784Z,8.00
2023-04-10T17:03:45.527Z,8.30
2023-04-10T17:06:12.953Z,8.40
2023-04-10T17:08:41.782Z,8.57
2023-04-10T17:11:09.526Z,8.07
2023-04-10T17:13:37.156Z,8.77
2023-04-10T17:16:04.937Z,8.33
2023-04-10T17:18:33.555Z,10.80
2023-04-10T17:21:01.039Z,9.40
2023-04-10T17:23:28.507Z,8.23
2023-04-10T17:25:57.280Z,8.43
2023-04-10T17:28:24.775Z,8.23
2023-04-10T17:30:52.187Z,8.73
2023-04-10T17:33:21.635Z,9.27
2023-04-10T17:35:50.558Z,9.90
2023-04-10T17:38:18.106Z,8.73
2023-04-10T17:40:45.933Z,8.87
2023-04-10T17:43:14.658Z,8.50
2023-04-10T17:45:42.327Z,8.97
2023-04-10T17:48:11.740Z,8.90
2023-04-10T17:50:39.302Z,8.83
2023-04-10T17:53:06.765Z,8.53
2023-04-10T17:55:38.844Z,8.70
2023-04-10T17:58:06.493Z,8.67
2023-04-10T18:00:35.652Z,8.30
2023-04-10T18:03:03.184Z,8.10
2023-04-10T18:05:31.190Z,8.80
2023-04-10T18:07:58.626Z,9.43
2023-04-10T18:10:26.060Z,8.50
2023-04-10T18:12:56.650Z,9.30
2023-04-10T18:15:24.051Z,8.63
2023-04-10T18:17:52.816Z,9.57
2023-04-10T18:20:20.897Z,9.53
2023-04-10T18:22:48.396Z,9.40
2023-04-10T18:25:15.973Z,8.83
2023-04-10T18:27:51.509Z,9.10
2023-04-10T18:30:19.602Z,9.87
2023-04-10T18:32:47.005Z,10.67
2023-04-10T18:35:16.137Z,8.83
2023-04-10T18:37:44.383Z,9.10
2023-04-10T18:40:16.208Z,8.80
2023-04-10T18:42:44.247Z,9.60
2023-04-10T18:45:13.329Z,9.43
2023-04-10T18:47:40.779Z,8.60
2023-04-10T18:50:10.267Z,9.17
2023-04-10T18:52:39.014Z,8.87
2023-04-10T18:55:07.201Z,8.23
2023-04-10T18:57:34.666Z,9.43
2023-04-10T19:00:04.439Z,8.67
2023-04-10T19:02:31.956Z,8.93
2023-04-10T19:04:59.666Z,8.10
2023-04-10T19:07:27.070Z,9.43
2023-04-10T19:09:56.064Z,9.23
2023-04-10T19:12:23.482Z,8.80
2023-04-10T19:14:50.898Z,8.40
2023-04-10T19:17:21.796Z,8.10
2023-04-10T19:19:49.404Z,7.73
2023-04-10T19:22:17.124Z,8.20
2023-04-10T19:24:44.572Z,8.40
2023-04-10T19:27:13.423Z,10.43
2023-04-10T19:29:40.850Z,9.10
2023-04-10T19:32:09.585Z,9.50
2023-04-10T19:34:37.025Z,8.73
2023-04-10T19:37:04.482Z,13.57
2023-04-10T19:39:31.923Z,8.60
2023-04-10T19:41:59.486Z,8.30
2023-04-10T19:44:28.390Z,8.67
2023-04-10T19:46:55.926Z,8.13
2023-04-10T19:49:23.517Z,9.43
2023-04-10T19:51:51.139Z,9.73
2023-04-10T19:54:18.607Z,8.50
2023-04-10T19:56:46.060Z,8.83
2023-04-10T19:59:13.520Z,8.03
2023-04-10T20:01:42.319Z,8.07
2023-04-10T20:04:09.936Z,8.10
2023-04-10T20:06:37.547Z,8.87
2023-04-10T20:09:05.126Z,8.70
2023-04-10T20:11:32.795Z,8.53
2023-04-10T20:14:00.364Z,9.53
2023-04-10T20:16:27.855Z,8.13
2023-04-10T20:18:56.905Z,8.20
2023-04-10T20:21:24.514Z,8.17
2023-04-10T20:23:51.984Z,9.07
2023-04-10T20:26:19.402Z,8.20
2023-04-10T20:28:46.927Z,8.03
2023-04-10T20:31:15.218Z,8.87
2023-04-10T20:33:42.732Z,8.77
2023-04-10T20:36:11.740Z,8.90
2023-04-10T20:38:39.462Z,8.73
2023-04-10T20:41:07.062Z,7.53
2023-04-10T20:43:34.506Z,7.70
2023-04-10T20:46:03.964Z,8.07
2023-04-10T20:48:31.446Z,7.90
2023-04-10T20:50:58.867Z,8.83
2023-04-10T20:53:28.970Z,8.13
2023-04-10T20:55:56.504Z,8.53
2023-04-10T20:58:24.128Z,9.33
2023-04-10T21:00:52.290Z,8.30
2023-04-10T21:03:20.040Z,7.20
2023-04-10T21:05:47.725Z,7.87
2023-04-10T21:08:15.400Z,7.43
2023-04-10T21:10:44.920Z,8.13
2023-04-10T21:13:13.569Z,7.77
2023-04-10T21:15:41.021Z,7.50
2023-04-10T21:18:08.452Z,7.87
2023-04-10T21:20:36.034Z,8.33
2023-04-10T21:23:03.638Z,7.77
2023-04-10T21:25:32.378Z,7.97
2023-04-10T21:28:01.495Z,8.67
2023-04-10T21:30:29.423Z,7.60
2023-04-10T21:32:57.029Z,8.43
2023-04-10T21:35:24.780Z,8.00
2023-04-10T21:37:56.505Z,7.47
2023-04-10T21:40:24.842Z,7.00
2023-04-10T21:42:53.371Z,7.90
2023-04-10T21:45:23.568Z,8.07
2023-04-10T21:47:51.074Z,8.03
2023-04-10T21:50:18.645Z,7.43
2023-04-10T21:52:46.125Z,8.10
2023-04-10T21:55:15.291Z,7.77
2023-04-10T21:57:42.748Z,7.50
2023-04-10T22:00:12.443Z,6.43
2023-04-10T22:02:41.358Z,9.07
2023-04-10T22:05:09.361Z,7.30
2023-04-10T22:07:36.811Z,7.70
2023-04-10T22:10:04.620Z,8.10
2023-04-10T22:12:32.094Z,8.17
2023-04-10T22:14:59.536Z,7.40
2023-04-10T22:17:27.146Z,7.90
2023-04-10T22:19:55.885Z,8.67
2023-04-10T22:22:23.342Z,8.20
2023-04-10T22:24:50.951Z,7.63
2023-04-10T22:27:18.399Z,8.13
2023-04-10T22:29:56.215Z,8.00
2023-04-10T22:32:30.126Z,8.10
2023-04-10T22:35:00.621Z,8.23
2023-04-10T22:37:28.262Z,9.00
2023-04-10T22:39:56.226Z,7.60
2023-04-10T22:42:24.082Z,8.27
2023-04-10T22:44:51.573Z,9.03
2023-04-10T22:47:19.007Z,8.07
2023-04-10T22:49:46.484Z,8.10
2023-04-10T22:52:16.245Z,8.10
2023-04-10T22:54:43.683Z,8.63
2023-04-10T22:57:11.133Z,7.37
2023-04-10T22:59:38.731Z,8.50
2023-04-10T23:02:06.316Z,8.33
2023-04-10T23:04:34.042Z,8.33
2023-04-10T23:07:01.556Z,8.57
2023-04-10T23:09:30.328Z,8.20
2023-04-10T23:11:57.783Z,8.27
2023-04-10T23:14:25.198Z,8.47
2023-04-10T23:16:52.619Z,8.83
2023-04-10T23:19:20.052Z,8.70
2023-04-10T23:21:47.549Z,9.63
2023-04-10T23:24:14.979Z,8.60
2023-04-10T23:26:43.772Z,8.00
2023-04-10T23:29:11.219Z,8.43
2023-04-10T23:31:38.705Z,8.90
2023-04-10T23:34:06.203Z,8.80
2023-04-10T23:36:33.620Z,7.40
2023-04-10T23:39:01.039Z,8.77
2023-04-10T23:41:28.470Z,8.63
2023-04-10T23:43:57.264Z,10.27
2023-04-10T23:46:24.830Z,8.07
2023-04-10T23:48:54.317Z,8.53
2023-04-10T23:51:21.940Z,8.20
2023-04-10T23:53:49.331Z,8.50
2023-04-10T23:56:16.804Z,8.13
2023-04-10T23:58:44.247Z,8.73
